Time;durP1;ratioP1;P1;durP2;ratioP2;P2;SDS_P1;SDS_P2;PMS_P1;PMS_P2;Temp;Humidity;BMP_temperature;BMP_pressure;BME280_temperature;BME280_humidity;BME280_pressure;Samples;Min_cycle;Max_cycle;Signal;HPM_P1;HPM_P2
2023/08/29 00:02:05;;;;;;;3.15;1.85;;;;;;;;;;4971140;29;20171;-78
2023/08/29 00:04:31;;;;;;;6.68;2.28;;;;;;;;;;4949139;29;20501;-79
2023/08/29 00:06:56;;;;;;;5.03;2.25;;;;;;;;;;4962416;28;20102;-79
2023/08/29 00:09:22;;;;;;;3.80;1.90;;;;;;;;;;4963179;29;20091;-79
2023/08/29 00:11:48;;;;;;;5.05;1.77;;;;;;;;;;4930996;29;20038;-78
2023/08/29 00:14:13;;;;;;;3.05;1.92;;;;;;;;;;4930634;29;20035;-79
2023/08/29 00:16:40;;;;;;;6.35;2.00;;;;;;;;;;4946148;29;20047;-78
2023/08/29 00:19:05;;;;;;;4.43;1.88;;;;;;;;;;4929196;29;20498;-79
2023/08/29 00:21:31;;;;;;;2.78;1.67;;;;;;;;;;4932601;29;20086;-79
2023/08/29 00:23:56;;;;;;;3.75;1.70;;;;;;;;;;4947206;29;20097;-78
2023/08/29 00:26:22;;;;;;;4.50;1.80;;;;;;;;;;4963700;28;20051;-78
2023/08/29 00:28:51;;;;;;;3.30;2.00;;;;;;;;;;4963533;28;20043;-78
2023/08/29 00:31:16;;;;;;;2.58;1.60;;;;;;;;;;4964420;28;20074;-78
2023/08/29 00:33:42;;;;;;;4.20;2.00;;;;;;;;;;4949455;29;20031;-79
2023/08/29 00:36:08;;;;;;;4.18;2.10;;;;;;;;;;4969137;29;20082;-78
2023/08/29 00:38:34;;;;;;;5.00;1.80;;;;;;;;;;4965633;29;20050;-79
2023/08/29 00:41:00;;;;;;;5.57;2.13;;;;;;;;;;4945053;29;20027;-79
2023/08/29 00:43:26;;;;;;;5.28;2.30;;;;;;;;;;4963292;29;20061;-78
2023/08/29 00:45:52;;;;;;;5.30;2.30;;;;;;;;;;4962569;29;20039;-79
2023/08/29 00:48:18;;;;;;;4.85;2.20;;;;;;;;;;4964278;28;20038;-78
2023/08/29 00:50:47;;;;;;;6.03;2.17;;;;;;;;;;4930556;29;20035;-79
2023/08/29 00:53:13;;;;;;;4.22;2.13;;;;;;;;;;4959872;28;20039;-79
2023/08/29 00:55:39;;;;;;;3.88;2.00;;;;;;;;;;4945020;29;20372;-79
2023/08/29 00:58:04;;;;;;;7.50;2.47;;;;;;;;;;4963129;28;20067;-78
2023/08/29 01:00:31;;;;;;;4.97;2.20;;;;;;;;;;4965347;28;20171;-78
2023/08/29 01:02:57;;;;;;;4.20;2.20;;;;;;;;;;4933649;29;20122;-80
2023/08/29 01:05:23;;;;;;;4.00;2.38;;;;;;;;;;4948297;29;20035;-79
2023/08/29 01:07:53;;;;;;;5.28;2.55;;;;;;;;;;4964223;29;20035;-78
2023/08/29 01:10:28;;;;;;;4.20;2.28;;;;;;;;;;4966781;29;20045;-78
2023/08/29 01:13:08;;;;;;;3.95;2.30;;;;;;;;;;4933419;29;20031;-78
2023/08/29 01:15:34;;;;;;;5.90;2.55;;;;;;;;;;4966956;28;20055;-78
2023/08/29 01:18:05;;;;;;;6.05;2.40;;;;;;;;;;4966513;29;20058;-79
2023/08/29 01:20:31;;;;;;;4.53;2.55;;;;;;;;;;4933557;29;20058;-78
2023/08/29 01:23:07;;;;;;;4.72;2.55;;;;;;;;;;4948681;29;20054;-78
2023/08/29 01:25:55;;;;;;;3.75;2.33;;;;;;;;;;4963699;29;20050;-78
2023/08/29 01:28:22;;;;;;;5.03;2.40;;;;;;;;;;4963544;28;20050;-78
2023/08/29 01:30:50;;;;;;;4.63;2.42;;;;;;;;;;4963552;29;20055;-78
2023/08/29 01:33:19;;;;;;;3.65;2.50;;;;;;;;;;4965389;29;20039;-78
2023/08/29 01:35:46;;;;;;;5.10;2.67;;;;;;;;;;4966685;29;20035;-78
2023/08/29 01:38:12;;;;;;;5.80;2.70;;;;;;;;;;4935447;29;20095;-79
2023/08/29 01:40:39;;;;;;;4.20;2.50;;;;;;;;;;4965975;29;20031;-78
2023/08/29 01:43:05;;;;;;;4.80;2.60;;;;;;;;;;4965807;29;20078;-79
2023/08/29 01:45:30;;;;;;;5.88;2.50;;;;;;;;;;4964699;29;20035;-79
2023/08/29 01:47:56;;;;;;;3.97;2.50;;;;;;;;;;4947954;29;20070;-78
2023/08/29 01:50:23;;;;;;;4.03;2.15;;;;;;;;;;4964969;29;20031;-78
2023/08/29 01:52:49;;;;;;;5.28;2.58;;;;;;;;;;4964793;29;20035;-78
2023/08/29 01:55:15;;;;;;;4.53;2.80;;;;;;;;;;4965462;28;20035;-79
2023/08/29 01:57:43;;;;;;;5.18;2.40;;;;;;;;;;4947973;29;20027;-79
2023/08/29 02:00:09;;;;;;;4.55;2.70;;;;;;;;;;4951221;29;20042;-78
2023/08/29 02:02:43;;;;;;;5.45;2.72;;;;;;;;;;4948537;29;20370;-79
2023/08/29 02:05:09;;;;;;;5.28;2.80;;;;;;;;;;4963057;29;20081;-78
2023/08/29 02:07:36;;;;;;;3.45;2.40;;;;;;;;;;4947431;29;20043;-79
2023/08/29 02:10:03;;;;;;;8.27;3.10;;;;;;;;;;4966276;29;20035;-79
2023/08/29 02:12:30;;;;;;;6.63;3.28;;;;;;;;;;4931687;29;20039;-79
2023/08/29 02:14:56;;;;;;;5.72;3.10;;;;;;;;;;4964266;29;20054;-78
2023/08/29 02:17:23;;;;;;;6.03;2.83;;;;;;;;;;4947136;29;20495;-78
2023/08/29 02:19:50;;;;;;;4.93;2.80;;;;;;;;;;4965162;29;20031;-78
2023/08/29 02:22:16;;;;;;;4.80;2.75;;;;;;;;;;4963248;29;20077;-79
2023/08/29 02:24:42;;;;;;;4.28;2.70;;;;;;;;;;4964354;28;20035;-79
2023/08/29 02:27:08;;;;;;;4.35;3.08;;;;;;;;;;4965374;29;20522;-78
2023/08/29 02:29:33;;;;;;;7.90;3.08;;;;;;;;;;4962799;29;20028;-78
2023/08/29 02:31:59;;;;;;;7.13;3.45;;;;;;;;;;4965061;29;20491;-78
2023/08/29 02:34:26;;;;;;;6.10;3.20;;;;;;;;;;4964969;29;20043;-78
2023/08/29 02:36:52;;;;;;;5.28;3.78;;;;;;;;;;4965377;28;20035;-78
2023/08/29 02:39:18;;;;;;;5.40;3.70;;;;;;;;;;4972375;28;20027;-78
2023/08/29 02:41:44;;;;;;;5.60;3.60;;;;;;;;;;4963580;29;20111;-78
2023/08/29 02:44:09;;;;;;;4.80;3.30;;;;;;;;;;4948452;29;20031;-78
2023/08/29 02:46:35;;;;;;;5.55;3.70;;;;;;;;;;4966814;29;20391;-78
2023/08/29 02:49:01;;;;;;;5.72;3.80;;;;;;;;;;4968872;28;20031;-79
2023/08/29 02:51:27;;;;;;;5.70;3.63;;;;;;;;;;4966903;29;20061;-78
2023/08/29 02:53:52;;;;;;;6.55;4.05;;;;;;;;;;4965030;29;20038;-80
2023/08/29 02:56:19;;;;;;;6.65;3.83;;;;;;;;;;4981926;28;20039;-79
2023/08/29 02:58:46;;;;;;;5.20;3.08;;;;;;;;;;4964969;29;20031;-78
2023/08/29 03:01:12;;;;;;;5.75;3.30;;;;;;;;;;4966239;28;20086;-79
2023/08/29 03:03:38;;;;;;;5.97;3.70;;;;;;;;;;4964316;29;20101;-78
2023/08/29 03:06:05;;;;;;;7.07;3.45;;;;;;;;;;4948014;29;20066;-78
2023/08/29 03:08:33;;;;;;;7.78;3.47;;;;;;;;;;4964267;29;20048;-79
2023/08/29 03:11:01;;;;;;;6.75;3.60;;;;;;;;;;4931741;29;20034;-79
2023/08/29 03:13:27;;;;;;;7.50;3.80;;;;;;;;;;4963456;29;20510;-79
2023/08/29 03:15:52;;;;;;;7.15;3.92;;;;;;;;;;4965019;29;20069;-78
2023/08/29 03:18:19;;;;;;;4.82;3.60;;;;;;;;;;4948044;29;20027;-78
2023/08/29 03:20:45;;;;;;;6.75;4.30;;;;;;;;;;4950029;29;20027;-78
2023/08/29 03:23:11;;;;;;;7.45;3.75;;;;;;;;;;4935457;29;20057;-78
2023/08/29 03:25:37;;;;;;;6.68;3.83;;;;;;;;;;4969890;28;20070;-78
2023/08/29 03:28:04;;;;;;;6.90;4.45;;;;;;;;;;4954145;29;20031;-78
2023/08/29 03:30:30;;;;;;;7.70;4.50;;;;;;;;;;4937535;29;20058;-78
2023/08/29 03:32:55;;;;;;;6.15;3.70;;;;;;;;;;4954603;29;20042;-79
2023/08/29 03:35:21;;;;;;;6.65;4.47;;;;;;;;;;4968476;28;20071;-78
2023/08/29 03:37:50;;;;;;;6.25;4.07;;;;;;;;;;4967034;29;20035;-78
2023/08/29 03:40:15;;;;;;;5.47;3.83;;;;;;;;;;4966441;29;20035;-79
2023/08/29 03:42:41;;;;;;;7.90;4.03;;;;;;;;;;4950558;29;20055;-79
2023/08/29 03:45:07;;;;;;;7.07;4.47;;;;;;;;;;4963020;28;20376;-78
2023/08/29 03:47:33;;;;;;;8.73;4.88;;;;;;;;;;4962561;29;20521;-78
2023/08/29 03:49:59;;;;;;;6.82;4.43;;;;;;;;;;4965384;29;20091;-78
2023/08/29 03:52:26;;;;;;;6.78;4.43;;;;;;;;;;4966152;28;20039;-79
2023/08/29 03:54:52;;;;;;;6.05;4.03;;;;;;;;;;4964982;28;20035;-78
2023/08/29 03:57:22;;;;;;;6.10;4.20;;;;;;;;;;4962987;29;20067;-78
2023/08/29 03:59:48;;;;;;;6.70;4.30;;;;;;;;;;4946686;29;20031;-78
2023/08/29 04:02:15;;;;;;;9.25;4.88;;;;;;;;;;4963128;29;20041;-78
2023/08/29 04:04:44;;;;;;;7.50;5.18;;;;;;;;;;4961915;29;20038;-77
2023/08/29 04:07:10;;;;;;;7.22;5.38;;;;;;;;;;4960763;28;20395;-78
2023/08/29 04:09:36;;;;;;;7.63;5.00;;;;;;;;;;4943305;29;20034;-78
2023/08/29 04:12:02;;;;;;;6.28;4.80;;;;;;;;;;4962957;29;20059;-78
2023/08/29 04:14:27;;;;;;;7.70;5.50;;;;;;;;;;4958931;29;20099;-78
2023/08/29 04:16:53;;;;;;;8.23;5.65;;;;;;;;;;4962384;29;20059;-77
2023/08/29 04:19:20;;;;;;;10.63;5.57;;;;;;;;;;4963364;29;20097;-78
2023/08/29 04:21:45;;;;;;;8.82;5.18;;;;;;;;;;4960890;29;20168;-78
2023/08/29 04:24:11;;;;;;;10.07;4.97;;;;;;;;;;4944167;29;20636;-78
2023/08/29 04:26:37;;;;;;;10.13;5.20;;;;;;;;;;4961945;29;20055;-80
2023/08/29 04:29:03;;;;;;;8.57;5.10;;;;;;;;;;4974064;28;20043;-78
2023/08/29 04:31:28;;;;;;;8.65;5.65;;;;;;;;;;4961527;28;20039;-78
2023/08/29 04:33:54;;;;;;;7.38;5.38;;;;;;;;;;4943900;29;20027;-78
2023/08/29 04:36:20;;;;;;;7.00;5.35;;;;;;;;;;4961777;28;20403;-78
2023/08/29 04:38:48;;;;;;;8.32;5.90;;;;;;;;;;4961994;29;20027;-78
2023/08/29 04:41:14;;;;;;;7.95;5.15;;;;;;;;;;4961936;29;20035;-77
2023/08/29 04:43:41;;;;;;;10.45;7.15;;;;;;;;;;4964498;29;20031;-79
2023/08/29 04:46:10;;;;;;;11.43;6.68;;;;;;;;;;4962824;29;20062;-78
2023/08/29 04:48:36;;;;;;;10.73;6.43;;;;;;;;;;4963476;29;20027;-79
2023/08/29 04:51:04;;;;;;;14.50;8.13;;;;;;;;;;4961585;29;20042;-78
2023/08/29 04:53:30;;;;;;;10.20;6.43;;;;;;;;;;4965267;29;20028;-79
2023/08/29 04:56:02;;;;;;;8.30;7.00;;;;;;;;;;4961780;28;20042;-78
2023/08/29 04:58:33;;;;;;;9.90;6.40;;;;;;;;;;4931409;29;20035;-78
2023/08/29 05:00:59;;;;;;;10.15;6.78;;;;;;;;;;4946037;29;20050;-79
2023/08/29 05:03:24;;;;;;;13.98;6.72;;;;;;;;;;4947712;29;20031;-78
2023/08/29 05:05:53;;;;;;;9.82;6.53;;;;;;;;;;4961401;29;20120;-79
2023/08/29 05:08:19;;;;;;;9.73;6.38;;;;;;;;;;4961507;29;20121;-78
2023/08/29 05:10:46;;;;;;;12.00;8.25;;;;;;;;;;4931580;29;20039;-78
2023/08/29 05:13:13;;;;;;;10.57;6.90;;;;;;;;;;4962088;29;20035;-78
2023/08/29 05:15:39;;;;;;;10.13;6.63;;;;;;;;;;4960048;29;20039;-78
2023/08/29 05:18:05;;;;;;;8.45;6.72;;;;;;;;;;4940437;29;20082;-78
2023/08/29 05:20:31;;;;;;;11.80;7.03;;;;;;;;;;4955384;29;20363;-78
2023/08/29 05:22:56;;;;;;;7.95;5.97;;;;;;;;;;4957311;28;20031;-78
2023/08/29 05:25:23;;;;;;;8.73;6.32;;;;;;;;;;4955266;29;20039;-77
2023/08/29 05:27:48;;;;;;;8.40;6.05;;;;;;;;;;4956261;28;20035;-77
2023/08/29 05:30:14;;;;;;;10.43;5.68;;;;;;;;;;4955743;29;20028;-79
2023/08/29 05:32:40;;;;;;;8.23;5.53;;;;;;;;;;4959633;28;20067;-78
2023/08/29 05:35:07;;;;;;;9.85;5.80;;;;;;;;;;4923724;29;20042;-77
2023/08/29 05:37:32;;;;;;;9.18;5.75;;;;;;;;;;4922757;29;20487;-77
2023/08/29 05:39:58;;;;;;;9.75;5.60;;;;;;;;;;4939974;29;20031;-77
2023/08/29 05:42:26;;;;;;;11.10;8.07;;;;;;;;;;4957355;28;20526;-77
2023/08/29 05:44:52;;;;;;;10.57;6.45;;;;;;;;;;4943414;29;20028;-78
2023/08/29 05:47:17;;;;;;;11.70;6.97;;;;;;;;;;4958979;29;20113;-78
2023/08/29 05:49:43;;;;;;;9.43;5.57;;;;;;;;;;4958112;29;20031;-77
2023/08/29 05:52:08;;;;;;;9.50;5.15;;;;;;;;;;4963066;28;20028;-77
2023/08/29 05:54:36;;;;;;;10.23;4.95;;;;;;;;;;4969359;28;20031;-77
2023/08/29 05:57:02;;;;;;;8.45;5.22;;;;;;;;;;4964230;29;20032;-77
2023/08/29 05:59:28;;;;;;;7.03;4.60;;;;;;;;;;4961806;29;20035;-78
2023/08/29 06:01:54;;;;;;;8.93;4.95;;;;;;;;;;4960730;28;20030;-77
2023/08/29 06:04:20;;;;;;;5.95;4.65;;;;;;;;;;4964687;28;20019;-78
2023/08/29 06:06:47;;;;;;;6.75;4.32;;;;;;;;;;4928611;29;20138;-78
2023/08/29 06:09:13;;;;;;;9.65;5.10;;;;;;;;;;4958436;28;20094;-77
2023/08/29 06:11:39;;;;;;;10.43;6.15;;;;;;;;;;4927194;29;20070;-78
2023/08/29 06:14:05;;;;;;;9.30;5.43;;;;;;;;;;4942256;29;20031;-78
2023/08/29 06:16:31;;;;;;;6.75;4.32;;;;;;;;;;4958042;29;20490;-77
2023/08/29 06:18:57;;;;;;;7.03;4.15;;;;;;;;;;4941543;29;20446;-77
2023/08/29 06:21:22;;;;;;;8.05;4.22;;;;;;;;;;4941931;29;20035;-77
2023/08/29 06:23:48;;;;;;;8.75;3.80;;;;;;;;;;4957864;28;20035;-77
2023/08/29 06:26:15;;;;;;;7.43;3.38;;;;;;;;;;4942370;29;20105;-78
2023/08/29 06:28:42;;;;;;;6.10;3.47;;;;;;;;;;4926634;29;20027;-78
2023/08/29 06:31:08;;;;;;;5.60;3.25;;;;;;;;;;4960014;28;20042;-77
2023/08/29 06:33:34;;;;;;;4.97;3.30;;;;;;;;;;4959714;29;20035;-78
2023/08/29 06:36:00;;;;;;;4.63;2.97;;;;;;;;;;4959543;29;20027;-78
2023/08/29 06:38:26;;;;;;;6.80;3.35;;;;;;;;;;4969866;29;20098;-78
2023/08/29 06:40:55;;;;;;;7.82;3.35;;;;;;;;;;4970107;29;20031;-78
2023/08/29 06:43:21;;;;;;;7.00;3.63;;;;;;;;;;4970819;29;20027;-78
2023/08/29 06:45:47;;;;;;;6.90;2.97;;;;;;;;;;4968849;29;20359;-77
2023/08/29 06:48:13;;;;;;;6.13;3.55;;;;;;;;;;4967930;29;20058;-78
2023/08/29 06:50:41;;;;;;;4.90;3.30;;;;;;;;;;4959130;29;20173;-78
2023/08/29 06:53:07;;;;;;;5.40;3.08;;;;;;;;;;4927137;29;20681;-77
2023/08/29 06:55:34;;;;;;;9.82;5.40;;;;;;;;;;4958639;28;20407;-77
2023/08/29 06:58:00;;;;;;;8.32;3.83;;;;;;;;;;4959402;29;20035;-77
2023/08/29 07:00:27;;;;;;;5.57;3.35;;;;;;;;;;4926340;29;20058;-77
2023/08/29 07:02:53;;;;;;;5.70;3.38;;;;;;;;;;4957494;29;20031;-77
2023/08/29 07:05:19;;;;;;;7.20;3.40;;;;;;;;;;4958270;29;20050;-79
2023/08/29 07:07:45;;;;;;;7.13;3.40;;;;;;;;;;4959082;29;20041;-78
2023/08/29 07:10:11;;;;;;;7.35;3.95;;;;;;;;;;4957702;29;20406;-79
2023/08/29 07:12:37;;;;;;;5.68;3.38;;;;;;;;;;4957668;28;20039;-77
2023/08/29 07:15:03;;;;;;;6.50;3.90;;;;;;;;;;4943714;29;20411;-78
2023/08/29 07:17:29;;;;;;;7.60;4.28;;;;;;;;;;4932044;29;20039;-78
2023/08/29 07:19:55;;;;;;;8.77;4.28;;;;;;;;;;4948323;29;20027;-78
2023/08/29 07:22:20;;;;;;;4.90;3.50;;;;;;;;;;4947466;29;20114;-78
2023/08/29 07:24:47;;;;;;;7.32;3.58;;;;;;;;;;4963005;28;20046;-78
2023/08/29 07:27:13;;;;;;;5.15;3.00;;;;;;;;;;4928392;29;20110;-78
2023/08/29 07:29:39;;;;;;;6.03;3.53;;;;;;;;;;4925273;29;20066;-78
2023/08/29 07:32:04;;;;;;;4.68;2.85;;;;;;;;;;4923227;29;20031;-77
2023/08/29 07:34:30;;;;;;;5.93;3.17;;;;;;;;;;4954936;29;20035;-77
2023/08/29 07:36:56;;;;;;;5.15;3.28;;;;;;;;;;4954730;29;20055;-77
2023/08/29 07:39:21;;;;;;;7.47;3.08;;;;;;;;;;4954614;29;20607;-78
2023/08/29 07:41:47;;;;;;;5.07;3.03;;;;;;;;;;4958343;29;20039;-79
2023/08/29 07:44:13;;;;;;;5.93;3.20;;;;;;;;;;4959569;29;20034;-80
2023/08/29 07:46:38;;;;;;;5.10;2.80;;;;;;;;;;4959746;29;20027;-79
2023/08/29 07:49:10;;;;;;;5.72;3.20;;;;;;;;;;4961630;29;20091;-80
2023/08/29 07:51:36;;;;;;;7.38;3.50;;;;;;;;;;4943515;29;20518;-79
2023/08/29 07:54:01;;;;;;;6.63;2.80;;;;;;;;;;4960300;29;20038;-80
2023/08/29 07:56:27;;;;;;;6.22;3.13;;;;;;;;;;4960229;29;20042;-80
2023/08/29 07:58:52;;;;;;;4.80;2.95;;;;;;;;;;4958665;28;20047;-79
2023/08/29 08:01:18;;;;;;;6.10;2.67;;;;;;;;;;4958316;29;20023;-79
2023/08/29 08:03:44;;;;;;;4.40;3.00;;;;;;;;;;4957460;29;20399;-78
2023/08/29 08:06:09;;;;;;;7.40;3.42;;;;;;;;;;4956947;28;20106;-78
2023/08/29 08:08:35;;;;;;;5.95;3.03;;;;;;;;;;4940800;29;20042;-78
2023/08/29 08:11:00;;;;;;;7.05;2.97;;;;;;;;;;4958667;29;20035;-78
2023/08/29 08:13:28;;;;;;;4.63;3.05;;;;;;;;;;4957360;29;20050;-78
2023/08/29 08:15:53;;;;;;;7.22;2.80;;;;;;;;;;4958943;28;20035;-78
2023/08/29 08:18:19;;;;;;;5.40;3.47;;;;;;;;;;4959717;29;20086;-79
2023/08/29 08:20:44;;;;;;;7.03;3.20;;;;;;;;;;4961215;29;20506;-79
2023/08/29 08:23:10;;;;;;;3.85;2.60;;;;;;;;;;4959184;29;20070;-79
2023/08/29 08:25:36;;;;;;;5.60;2.67;;;;;;;;;;4962756;29;20027;-78
2023/08/29 08:28:01;;;;;;;7.00;2.90;;;;;;;;;;4963565;29;20031;-79
2023/08/29 08:30:27;;;;;;;3.85;2.42;;;;;;;;;;4961538;29;20109;-79
2023/08/29 08:32:54;;;;;;;5.03;2.20;;;;;;;;;;4959100;29;20042;-79
2023/08/29 08:35:20;;;;;;;6.45;2.60;;;;;;;;;;4957736;29;20035;-78
2023/08/29 08:37:45;;;;;;;7.00;3.13;;;;;;;;;;4962633;29;20797;-79
2023/08/29 08:40:11;;;;;;;6.28;2.47;;;;;;;;;;4945839;29;20043;-79
2023/08/29 08:42:39;;;;;;;5.07;2.70;;;;;;;;;;4962128;29;20170;-80
2023/08/29 08:45:05;;;;;;;7.65;3.42;;;;;;;;;;4966752;28;20027;-79
2023/08/29 08:47:33;;;;;;;4.30;2.53;;;;;;;;;;4968138;29;20157;-79
2023/08/29 08:49:58;;;;;;;9.85;2.80;;;;;;;;;;4952495;29;20062;-79
2023/08/29 08:52:24;;;;;;;6.70;3.03;;;;;;;;;;4966091;28;20039;-79
2023/08/29 08:54:49;;;;;;;4.72;2.38;;;;;;;;;;4963612;29;20491;-79
2023/08/29 08:57:15;;;;;;;5.13;2.35;;;;;;;;;;4962745;29;20046;-79
2023/08/29 08:59:41;;;;;;;5.18;2.55;;;;;;;;;;4961627;28;20098;-79
2023/08/29 09:02:12;;;;;;;4.50;2.60;;;;;;;;;;4962363;28;20035;-80
2023/08/29 09:04:38;;;;;;;5.03;2.87;;;;;;;;;;4964392;29;20035;-79
2023/08/29 09:07:03;;;;;;;4.28;2.55;;;;;;;;;;4963819;29;20058;-78
2023/08/29 09:09:29;;;;;;;4.78;2.70;;;;;;;;;;4965874;29;20028;-80
2023/08/29 09:11:57;;;;;;;7.07;4.00;;;;;;;;;;4967612;28;20043;-79
2023/08/29 09:14:23;;;;;;;6.85;2.88;;;;;;;;;;4952301;29;20050;-80
2023/08/29 09:16:56;;;;;;;6.68;3.85;;;;;;;;;;4968302;28;20094;-79
2023/08/29 09:19:23;;;;;;;6.72;2.70;;;;;;;;;;4969218;29;20031;-80
2023/08/29 09:21:49;;;;;;;7.65;2.95;;;;;;;;;;4971452;29;20774;-79
2023/08/29 09:24:21;;;;;;;4.32;2.65;;;;;;;;;;4966396;28;20039;-79
2023/08/29 09:26:46;;;;;;;9.02;4.35;;;;;;;;;;4964177;28;20075;-78
2023/08/29 09:29:16;;;;;;;9.48;5.53;;;;;;;;;;4965409;28;20107;-77
2023/08/29 09:31:42;;;;;;;6.30;3.88;;;;;;;;;;4965127;29;20034;-77
2023/08/29 09:34:08;;;;;;;5.75;2.65;;;;;;;;;;4968703;29;20031;-79
2023/08/29 09:36:33;;;;;;;4.35;2.40;;;;;;;;;;4964913;28;20069;-77
2023/08/29 09:39:00;;;;;;;4.45;2.42;;;;;;;;;;4962817;29;20035;-79
2023/08/29 09:41:26;;;;;;;5.22;2.90;;;;;;;;;;4966179;29;20039;-78
2023/08/29 09:43:51;;;;;;;3.80;2.70;;;;;;;;;;4965484;29;20502;-78
2023/08/29 09:46:21;;;;;;;4.95;2.70;;;;;;;;;;4949573;29;20031;-78
2023/08/29 09:48:54;;;;;;;3.75;2.60;;;;;;;;;;4966415;28;20031;-78
2023/08/29 09:51:20;;;;;;;5.38;3.20;;;;;;;;;;4966830;28;20123;-78
2023/08/29 09:53:47;;;;;;;7.05;3.40;;;;;;;;;;4965181;28;20051;-78
2023/08/29 09:56:12;;;;;;;7.60;3.70;;;;;;;;;;4965967;28;20039;-78
2023/08/29 09:58:38;;;;;;;6.40;3.42;;;;;;;;;;4958475;29;20027;-78
2023/08/29 10:01:05;;;;;;;5.57;2.95;;;;;;;;;;4976724;28;20065;-79
2023/08/29 10:03:31;;;;;;;7.55;3.17;;;;;;;;;;4961604;29;20125;-78
2023/08/29 10:05:58;;;;;;;6.28;3.33;;;;;;;;;;4958403;28;20032;-79
2023/08/29 10:08:26;;;;;;;7.43;2.75;;;;;;;;;;4957303;29;20459;-79
2023/08/29 10:10:56;;;;;;;5.82;3.20;;;;;;;;;;4957211;29;20058;-79
2023/08/29 10:13:23;;;;;;;4.68;3.17;;;;;;;;;;4957476;29;20086;-78
2023/08/29 10:15:49;;;;;;;5.28;3.22;;;;;;;;;;4941795;29;20047;-78
2023/08/29 10:18:15;;;;;;;5.70;3.00;;;;;;;;;;4957054;29;20396;-78
2023/08/29 10:20:44;;;;;;;5.00;2.60;;;;;;;;;;4958360;29;20039;-78
2023/08/29 10:23:10;;;;;;;5.97;3.65;;;;;;;;;;4956479;29;20037;-78
2023/08/29 10:25:38;;;;;;;5.18;3.20;;;;;;;;;;4957265;28;20110;-78
2023/08/29 10:28:05;;;;;;;4.95;3.58;;;;;;;;;;4957379;28;20110;-77
2023/08/29 10:30:31;;;;;;;4.45;2.72;;;;;;;;;;4956106;29;20034;-78
2023/08/29 10:32:57;;;;;;;5.68;2.58;;;;;;;;;;4956181;29;20043;-77
2023/08/29 10:35:23;;;;;;;3.88;2.58;;;;;;;;;;4956504;29;20132;-78
2023/08/29 10:37:54;;;;;;;7.22;3.70;;;;;;;;;;4959527;29;20023;-77
2023/08/29 10:40:20;;;;;;;5.38;2.72;;;;;;;;;;4957403;29;20027;-80
2023/08/29 10:42:48;;;;;;;6.80;3.33;;;;;;;;;;4963159;29;20034;-79
2023/08/29 10:45:14;;;;;;;8.48;3.67;;;;;;;;;;4961827;28;20040;-79
2023/08/29 10:47:45;;;;;;;7.85;3.17;;;;;;;;;;4962778;28;20035;-78
2023/08/29 10:50:15;;;;;;;7.25;3.08;;;;;;;;;;4959531;28;20027;-79
2023/08/29 10:52:41;;;;;;;11.93;4.93;;;;;;;;;;4957686;28;20038;-78
2023/08/29 10:55:23;;;;;;;6.03;3.30;;;;;;;;;;4955729;29;20071;-78
2023/08/29 10:57:50;;;;;;;5.78;3.08;;;;;;;;;;4956655;29;20042;-78
2023/08/29 11:00:17;;;;;;;7.15;3.40;;;;;;;;;;4923309;29;20031;-77
2023/08/29 11:02:43;;;;;;;5.63;3.20;;;;;;;;;;4955203;29;20024;-77
2023/08/29 11:05:09;;;;;;;4.30;2.65;;;;;;;;;;4962852;29;20020;-78
2023/08/29 11:07:35;;;;;;;6.75;3.13;;;;;;;;;;4963196;29;20039;-78
2023/08/29 11:10:20;;;;;;;7.20;3.28;;;;;;;;;;4956575;29;20035;-78
2023/08/29 11:13:07;;;;;;;4.68;3.17;;;;;;;;;;4957105;29;20035;-78
2023/08/29 11:15:48;;;;;;;5.28;3.00;;;;;;;;;;4924164;29;20039;-78
2023/08/29 11:18:21;;;;;;;7.10;3.30;;;;;;;;;;4957710;29;20031;-78
2023/08/29 11:20:47;;;;;;;5.95;2.65;;;;;;;;;;4956862;28;20034;-78
2023/08/29 11:23:13;;;;;;;4.95;2.50;;;;;;;;;;4959185;28;20032;-78
2023/08/29 11:25:39;;;;;;;5.78;2.70;;;;;;;;;;4958483;28;20033;-78
2023/08/29 11:28:05;;;;;;;6.72;2.85;;;;;;;;;;4941688;29;20118;-78
2023/08/29 11:30:30;;;;;;;6.05;3.38;;;;;;;;;;4957547;29;20039;-78
2023/08/29 11:32:56;;;;;;;5.18;3.10;;;;;;;;;;4958509;28;20403;-78
2023/08/29 11:35:21;;;;;;;13.32;4.68;;;;;;;;;;4954819;29;20038;-78
2023/08/29 11:37:47;;;;;;;7.18;2.85;;;;;;;;;;4954472;29;20515;-79
2023/08/29 11:40:13;;;;;;;6.57;3.03;;;;;;;;;;4956519;28;20451;-79
2023/08/29 11:42:38;;;;;;;6.70;2.58;;;;;;;;;;4957504;29;20081;-78
2023/08/29 11:45:08;;;;;;;8.05;2.60;;;;;;;;;;4955338;29;20031;-78
2023/08/29 11:47:33;;;;;;;5.85;2.90;;;;;;;;;;4939752;29;20043;-78
2023/08/29 11:50:04;;;;;;;4.00;3.00;;;;;;;;;;4956135;29;20126;-78
2023/08/29 11:52:30;;;;;;;5.68;2.50;;;;;;;;;;4940729;29;20045;-78
2023/08/29 11:54:56;;;;;;;9.70;3.25;;;;;;;;;;4955799;29;20035;-79
2023/08/29 11:57:23;;;;;;;4.82;3.00;;;;;;;;;;4955329;29;20043;-78
2023/08/29 11:59:54;;;;;;;6.93;2.72;;;;;;;;;;4956301;29;20037;-78
2023/08/29 12:02:23;;;;;;;4.45;3.00;;;;;;;;;;4957732;29;20039;-78
2023/08/29 12:04:56;;;;;;;7.18;3.60;;;;;;;;;;4957516;29;20055;-78
2023/08/29 12:07:22;;;;;;;8.98;3.40;;;;;;;;;;4956119;29;20019;-78
2023/08/29 12:09:48;;;;;;;7.03;3.88;;;;;;;;;;4939124;29;20505;-77
2023/08/29 12:12:34;;;;;;;5.57;3.20;;;;;;;;;;4923829;29;20035;-77
2023/08/29 12:15:00;;;;;;;4.97;2.50;;;;;;;;;;4953959;29;20027;-77
2023/08/29 12:17:38;;;;;;;8.15;3.47;;;;;;;;;;4922159;29;20035;-78
2023/08/29 12:20:25;;;;;;;5.18;2.50;;;;;;;;;;4953865;29;20031;-77
2023/08/29 12:22:52;;;;;;;4.30;2.77;;;;;;;;;;4954807;29;20574;-78
2023/08/29 12:25:18;;;;;;;5.28;3.35;;;;;;;;;;4922566;29;20039;-78
2023/08/29 12:27:44;;;;;;;8.15;3.22;;;;;;;;;;4954566;29;20035;-78
2023/08/29 12:30:14;;;;;;;4.35;2.88;;;;;;;;;;4922773;29;20054;-78
2023/08/29 12:32:43;;;;;;;5.07;3.00;;;;;;;;;;4923297;29;20126;-78
2023/08/29 12:35:10;;;;;;;5.45;3.03;;;;;;;;;;4938171;29;20468;-78
2023/08/29 12:37:35;;;;;;;7.43;3.00;;;;;;;;;;4954446;29;20042;-78
2023/08/29 12:40:04;;;;;;;8.23;3.30;;;;;;;;;;4938755;29;20399;-78
2023/08/29 12:42:30;;;;;;;5.03;2.92;;;;;;;;;;4957648;28;20431;-79
2023/08/29 12:44:56;;;;;;;6.65;2.80;;;;;;;;;;4955342;29;20035;-78
2023/08/29 12:47:21;;;;;;;9.07;3.22;;;;;;;;;;4939114;29;20038;-79
2023/08/29 12:49:47;;;;;;;7.38;2.88;;;;;;;;;;4938858;29;20514;-78
2023/08/29 12:52:14;;;;;;;5.18;2.70;;;;;;;;;;4957223;28;20031;-79
2023/08/29 12:54:42;;;;;;;4.13;2.50;;;;;;;;;;4959134;28;20031;-78
2023/08/29 12:57:08;;;;;;;5.38;2.70;;;;;;;;;;4959383;28;20027;-78
2023/08/29 12:59:34;;;;;;;6.32;3.08;;;;;;;;;;4958020;29;20039;-79
2023/08/29 13:01:59;;;;;;;8.00;2.90;;;;;;;;;;4958151;29;20019;-79
2023/08/29 13:04:25;;;;;;;4.50;2.70;;;;;;;;;;4959456;29;20114;-78
2023/08/29 13:06:50;;;;;;;4.80;2.42;;;;;;;;;;4958344;29;20055;-78
2023/08/29 13:09:16;;;;;;;4.85;2.33;;;;;;;;;;4943334;29;20117;-79
2023/08/29 13:11:42;;;;;;;3.75;2.15;;;;;;;;;;4957393;29;20046;-79
2023/08/29 13:14:10;;;;;;;4.47;2.42;;;;;;;;;;4941789;29;20082;-79
2023/08/29 13:16:36;;;;;;;;;;;;;;;;;;4926468;29;20106;-79
2023/08/29 13:19:02;;;;;;;5.75;3.55;;;;;;;;;;4940506;29;20329;-79
2023/08/29 13:21:28;;;;;;;6.65;3.10;;;;;;;;;;4958766;29;20210;-79
2023/08/29 13:23:53;;;;;;;7.63;3.00;;;;;;;;;;4941492;29;20487;-78
2023/08/29 13:26:19;;;;;;;4.13;2.35;;;;;;;;;;4956835;29;20112;-78
2023/08/29 13:28:44;;;;;;;3.60;2.10;;;;;;;;;;4925431;29;20170;-78
2023/08/29 13:31:10;;;;;;;7.32;4.15;;;;;;;;;;4959070;29;20121;-78
2023/08/29 13:33:36;;;;;;;4.32;2.28;;;;;;;;;;4961892;29;20163;-80
2023/08/29 13:36:01;;;;;;;5.90;2.53;;;;;;;;;;4944945;29;20035;-78
2023/08/29 13:38:27;;;;;;;6.75;3.20;;;;;;;;;;4960304;28;20379;-78
2023/08/29 13:40:53;;;;;;;7.28;2.60;;;;;;;;;;4967685;29;20373;-79
2023/08/29 13:43:18;;;;;;;4.78;2.42;;;;;;;;;;4943136;29;20039;-78
2023/08/29 13:45:47;;;;;;;5.88;2.25;;;;;;;;;;4963074;28;20079;-78
2023/08/29 13:48:13;;;;;;;3.58;1.90;;;;;;;;;;4941907;29;20039;-79
2023/08/29 13:50:39;;;;;;;4.40;2.35;;;;;;;;;;4941942;29;20034;-78
2023/08/29 13:53:05;;;;;;;3.78;2.15;;;;;;;;;;4957666;29;20039;-79
2023/08/29 13:55:30;;;;;;;3.80;2.10;;;;;;;;;;4958428;29;20039;-78
2023/08/29 13:57:56;;;;;;;4.65;2.05;;;;;;;;;;4961427;29;20308;-78
2023/08/29 14:00:22;;;;;;;3.30;1.67;;;;;;;;;;4963560;29;20035;-78
2023/08/29 14:02:48;;;;;;;4.78;1.70;;;;;;;;;;4963067;28;20095;-78
2023/08/29 14:05:14;;;;;;;7.70;2.22;;;;;;;;;;4966042;28;20036;-78
2023/08/29 14:07:39;;;;;;;5.68;2.03;;;;;;;;;;4959604;29;20431;-78
2023/08/29 14:10:05;;;;;;;7.28;2.00;;;;;;;;;;4961953;29;20038;-79
2023/08/29 14:12:31;;;;;;;2.50;1.23;;;;;;;;;;4963380;28;20023;-78
2023/08/29 14:14:56;;;;;;;2.65;0.93;;;;;;;;;;4959071;29;20552;-79
2023/08/29 14:17:22;;;;;;;2.50;1.20;;;;;;;;;;4930293;29;20118;-78
2023/08/29 14:19:47;;;;;;;2.38;1.20;;;;;;;;;;4961201;29;20066;-79
2023/08/29 14:22:13;;;;;;;4.00;1.20;;;;;;;;;;4961270;28;20035;-79
2023/08/29 14:24:38;;;;;;;3.03;1.20;;;;;;;;;;4960526;28;20035;-79
2023/08/29 14:27:04;;;;;;;5.57;1.25;;;;;;;;;;4961108;29;20051;-79
2023/08/29 14:29:30;;;;;;;3.35;1.40;;;;;;;;;;4928940;29;20027;-79
2023/08/29 14:31:56;;;;;;;2.75;1.40;;;;;;;;;;4944697;29;20046;-79
2023/08/29 14:34:21;;;;;;;3.40;1.05;;;;;;;;;;4926610;29;20031;-78
2023/08/29 14:36:47;;;;;;;1.90;1.10;;;;;;;;;;4957242;29;20050;-79
2023/08/29 14:39:16;;;;;;;2.67;1.10;;;;;;;;;;4958507;29;20035;-79
2023/08/29 14:41:42;;;;;;;2.80;1.38;;;;;;;;;;4958535;29;20031;-79